METAR Data
IDs: Format: Raw Decoded Include TAF

Data at: 1830 UTC 16 Oct 2021

KSJT 161751Z 06008KT 10SM CLR 19/M01 A3044 RMK AO2 SLP303 T01891006 10194 20044 58002
KSJT 161651Z 08006KT 10SM CLR 18/01 A3046 RMK AO2 SLP306 T01780011
KSJT 161551Z 10004KT 10SM CLR 16/04 A3046 RMK AO2 SLP310 T01560039
KSJT 161451Z 00000KT 10SM CLR 13/04 A3045 RMK AO2 SLP306 T01330044 51024
KSJT 161351Z 21004KT 10SM CLR 08/07 A3043 RMK AO2 SLP301 T00830067
KSJT 161251Z 20005KT 10SM CLR 04/03 A3040 RMK AO2 SLP292 T00440028
KSJT 161151Z 03003KT 10SM CLR 05/03 A3037 RMK AO2 SLP282 T00500033 10111 20050 53008
KSJT 161051Z AUTO 33004KT 10SM CLR 07/04 A3036 RMK AO2 SLP276 T00670044
KSJT 160951Z AUTO 34004KT 10SM CLR 09/05 A3035 RMK AO2 SLP268 T00890050
KSJT 160851Z AUTO 35004KT 10SM CLR 10/06 A3035 RMK AO2 SLP267 T01000061 50002
KSJT 160751Z AUTO 36004KT 10SM CLR 11/06 A3036 RMK AO2 SLP271 T01060061
KSJT 160651Z AUTO 04003KT 10SM CLR 10/06 A3036 RMK AO2 SLP270 T01000056
KSJT 160551Z AUTO 15005KT 10SM CLR 10/06 A3034 RMK AO2 SLP265 T01000061 10200 20100 402390100 51023
KSJT 160451Z AUTO 04007KT 10SM CLR 13/06 A3033 RMK AO2 SLP260 T01280056
KSJT 160351Z AUTO 04007KT 10SM CLR 14/05 A3030 RMK AO2 SLP252 T01440050
KSJT 160251Z AUTO 03008KT 10SM CLR 15/06 A3027 RMK AO2 SLP240 T01500056 53027
KSJT 160151Z AUTO 04007KT 10SM CLR 16/06 A3024 RMK AO2 SLP230 T01610056
KSJT 160051Z 04007KT 10SM CLR 17/06 A3021 RMK AO2 SLP219 T01720056
KSJT 152351Z 04011KT 10SM CLR 20/04 A3018 RMK AO2 SLP210 T02000044 10239 20189 53012
KSJT 152251Z 01015KT 10SM CLR 22/04 A3016 RMK AO2 SLP199 T02220039
KSJT 152151Z 35012G20KT 10SM CLR 23/05 A3015 RMK AO2 SLP194 T02330050
KSJT 152051Z 02015KT 10SM CLR 23/06 A3015 RMK AO2 SLP192 T02330056 55003
KSJT 151951Z 01013KT 10SM CLR 23/08 A3014 RMK AO2 SLP191 T02330078
KSJT 151851Z 35015G23KT 10SM CLR 23/08 A3015 RMK AO2 SLP191 T02280078
KSJT 151751Z 36012KT 10SM CLR 22/09 A3016 RMK AO2 SLP195 T02170094 10217 20156 51015
KSJT 151651Z 34010KT 10SM CLR 20/09 A3016 RMK AO2 SLP197 T02000089
KSJT 151551Z 35007KT 10SM CLR 19/08 A3014 RMK AO2 SLP193 T01890083
KSJT 151451Z 35007KT 10SM CLR 18/08 A3011 RMK AO2 SLP181 T01780078 53045
KSJT 151351Z 33009KT 10SM CLR 16/07 A3006 RMK AO2 SLP167 T01560067
KSJT 151251Z 29008KT 10SM CLR 16/13 A3000 RMK AO2 SLP143 T01610133
KSJT 151151Z 25004KT 10SM CLR 16/15 A2997 RMK AO2 SLP130 T01560150 10211 20156 53020
KSJT 151051Z AUTO 21006KT 10SM CLR 16/16 A2993 RMK AO2 SLP117 T01610156
KSJT 150951Z AUTO 00000KT 10SM CLR 17/17 A2992 RMK AO2 SLP110 T01720167
KSJT 150851Z AUTO 20005KT 10SM CLR 18/17 A2991 RMK AO2 SLP106 T01830172 50002
KSJT 150751Z AUTO 21005KT 10SM CLR 18/17 A2991 RMK AO2 SLP109 T01830172
KSJT 150651Z AUTO 26006KT 10SM CLR 21/17 A2992 RMK AO2 SLP108 T02060172